Terminal Aerodrome Forecast
Issued by NWS North Platte, NE

Home | Current Version | Previous Version | Text Only | Print | Product List | Glossary On
Versions: 1 2 3 4 5 6 7 8 9 10 11 12 13
193
FTUS43 KLBF 242320
TAFLBF
TAF
KLBF 242320Z 2500/2524 01008KT P6SM BKN150
     FM250200 05008KT P6SM BKN200
     FM250300 06008KT P6SM VCSH BKN130
     FM250900 03010G17KT P6SM VCSH OVC110
     FM251100 03011G17KT P6SM VCSH OVC030
     FM251600 01012G21KT P6SM VCSH OVC015=

USA.gov is the U.S. government's official web portal to all federal, state and local government web resources and services.